Time;durP1;ratioP1;P1;durP2;ratioP2;P2;SDS_P1;SDS_P2;PMS_P1;PMS_P2;Temp;Humidity;BMP_temperature;BMP_pressure;BME280_temperature;BME280_humidity;BME280_pressure;Samples;Min_cycle;Max_cycle;Signal;HPM_P1;HPM_P2
2022/01/09 00:01:14;;;;;;;;;2.50;0.75;;;;;6.13;74.46;99220.38;5022276;28;46440;-75
2022/01/09 00:03:39;;;;;;;;;3.00;1.00;;;;;6.11;74.76;99218.69;5011059;28;45539;-76
2022/01/09 00:06:05;;;;;;;;;0.25;0.00;;;;;6.07;74.46;99228.38;5011487;27;45632;-75
2022/01/09 00:08:30;;;;;;;;;3.75;3.75;;;;;6.02;74.97;99235.50;5010150;28;45396;-75
2022/01/09 00:10:56;;;;;;;;;0.00;0.00;;;;;5.99;75.29;99235.56;5008180;28;47500;-75
2022/01/09 00:13:21;;;;;;;;;4.00;3.00;;;;;5.96;75.40;99244.31;5009948;28;45290;-75
2022/01/09 00:15:47;;;;;;;;;0.00;0.00;;;;;5.95;75.49;99250.50;5010908;28;45498;-75
2022/01/09 00:18:12;;;;;;;;;4.50;3.00;;;;;5.92;75.24;99254.91;5010511;27;45513;-75
2022/01/09 00:20:38;;;;;;;;;1.75;0.00;;;;;5.90;75.50;99248.84;5010564;28;45499;-74
2022/01/09 00:23:03;;;;;;;;;0.00;0.00;;;;;5.86;75.39;99269.91;5010251;28;45456;-75
2022/01/09 00:25:28;;;;;;;;;0.00;0.00;;;;;5.82;75.63;99268.25;5010149;28;45969;-75
2022/01/09 00:27:54;;;;;;;;;2.50;0.00;;;;;5.80;75.86;99270.03;4993180;28;45439;-74
2022/01/09 00:30:21;;;;;;;;;3.50;3.50;;;;;5.77;76.18;99277.97;5009223;28;45893;-74
2022/01/09 00:32:47;;;;;;;;;6.50;3.75;;;;;5.73;76.08;99276.31;5095615;27;45661;-75
2022/01/09 00:35:13;;;;;;;;;2.00;1.00;;;;;5.69;76.35;99287.75;5011138;27;45460;-75
2022/01/09 00:37:39;;;;;;;;;0.00;0.00;;;;;5.64;76.08;99282.59;4992859;28;45502;-74
2022/01/09 00:40:07;;;;;;;;;0.00;0.00;;;;;5.61;75.80;99301.00;5010134;28;45284;-73
2022/01/09 00:42:33;;;;;;;;;3.00;3.00;;;;;5.60;76.39;99309.78;5011093;28;45589;-76
2022/01/09 00:44:58;;;;;;;;;0.25;0.00;;;;;5.58;75.92;99313.31;5013324;28;45533;-75
2022/01/09 00:47:24;;;;;;;;;0.00;0.00;;;;;5.55;75.91;99326.50;5019797;28;45506;-75
2022/01/09 00:49:49;;;;;;;;;4.00;0.25;;;;;5.49;76.20;99323.06;5033019;28;45920;-75
2022/01/09 00:52:14;;;;;;;;;0.00;0.00;;;;;5.45;76.11;99331.91;5034417;28;45552;-74
2022/01/09 00:54:40;;;;;;;;;1.50;1.50;;;;;5.46;75.64;99323.13;5032870;28;45399;-74
2022/01/09 00:57:05;;;;;;;;;3.50;2.00;;;;;5.45;75.36;99341.50;5011868;28;45478;-75
2022/01/09 00:59:31;;;;;;;;;0.50;0.50;;;;;5.42;75.65;99344.19;5012371;28;46202;-75
2022/01/09 01:01:56;;;;;;;;;0.50;0.00;;;;;5.40;75.71;99351.22;5013054;28;45458;-75
2022/01/09 01:04:22;;;;;;;;;1.00;0.00;;;;;5.38;75.23;99359.09;5012996;28;45643;-74
2022/01/09 01:06:49;;;;;;;;;0.25;0.00;;;;;5.38;75.26;99360.88;5013202;28;45615;-75
2022/01/09 01:09:15;;;;;;;;;0.50;0.50;;;;;5.35;74.97;99380.13;5013025;28;46251;-74
2022/01/09 01:11:40;;;;;;;;;0.25;0.00;;;;;5.33;74.59;99387.16;5011922;28;45345;-74
2022/01/09 01:14:05;;;;;;;;;2.50;0.00;;;;;5.31;74.72;99395.06;5015405;28;45779;-75
2022/01/09 01:16:31;;;;;;;;;0.00;0.00;;;;;5.25;74.69;99394.28;5017703;28;45397;-75
2022/01/09 01:18:56;;;;;;;;;0.75;0.00;;;;;5.28;74.50;99410.81;5012668;28;46130;-74
2022/01/09 01:21:24;;;;;;;;;3.00;0.00;;;;;5.21;74.25;99397.81;4995220;28;45426;-74
2022/01/09 01:23:51;;;;;;;;;2.50;2.50;;;;;5.24;75.18;99405.63;5013136;27;45576;-74
2022/01/09 01:26:17;;;;;;;;;0.00;0.00;;;;;5.19;74.96;99416.19;5012937;28;45645;-75
2022/01/09 01:28:42;;;;;;;;;0.75;0.00;;;;;5.18;75.04;99424.97;5021462;28;46673;-74
2022/01/09 01:31:07;;;;;;;;;0.00;0.00;;;;;5.16;75.08;99432.84;5028348;28;46077;-75
2022/01/09 01:33:33;;;;;;;;;0.00;0.00;;;;;5.10;75.87;99435.56;5027515;28;45697;-74
2022/01/09 01:35:58;;;;;;;;;1.75;1.75;;;;;5.07;76.11;99442.59;5023779;28;45361;-74
2022/01/09 01:38:23;;;;;;;;;0.00;0.00;;;;;5.07;76.03;99453.94;5012682;28;45318;-75
2022/01/09 01:40:49;;;;;;;;;1.75;1.75;;;;;5.04;76.77;99460.97;5012208;28;45501;-74
2022/01/09 01:43:14;;;;;;;;;0.75;0.75;;;;;5.03;77.16;99454.03;5013255;28;45255;-75
2022/01/09 01:45:40;;;;;;;;;0.75;0.75;;;;;5.06;77.35;99462.69;5013829;28;45455;-75
2022/01/09 01:48:06;;;;;;;;;7.00;4.00;;;;;5.10;76.81;99477.47;4992839;28;46110;-75
2022/01/09 01:50:37;;;;;;;;;0.00;0.00;;;;;5.12;76.80;99483.53;4993430;28;45365;-74
2022/01/09 01:53:07;;;;;;;;;4.00;2.00;;;;;5.15;77.24;99493.13;4974630;27;45483;-75
2022/01/09 01:55:36;;;;;;;;;0.75;0.25;;;;;5.18;76.75;99495.69;4998923;28;45347;-74
2022/01/09 01:58:04;;;;;;;;;1.00;1.00;;;;;5.23;76.54;99495.63;5012362;28;46664;-74
2022/01/09 02:00:29;;;;;;;;;2.25;0.00;;;;;5.23;76.59;99500.88;5013391;28;45500;-74
2022/01/09 02:02:55;;;;;;;;;0.00;0.00;;;;;5.24;75.94;99505.19;4994618;27;45507;-74
2022/01/09 02:05:20;;;;;;;;;3.00;0.75;;;;;5.24;75.62;99513.06;5012736;28;45473;-74
2022/01/09 02:07:45;;;;;;;;;0.00;0.00;;;;;5.25;75.78;99509.56;5012812;27;45560;-74
2022/01/09 02:10:11;;;;;;;;;5.50;5.50;;;;;5.23;75.35;99527.06;5011839;28;45563;-75
2022/01/09 02:12:38;;;;;;;;;0.00;0.00;;;;;5.22;75.95;99528.81;5012153;28;45392;-75
2022/01/09 02:15:29;;;;;;;;;0.50;0.25;;;;;5.23;76.63;99533.16;5012309;28;45502;-74
2022/01/09 02:17:55;;;;;;;;;0.00;0.00;;;;;5.22;76.60;99531.41;5012975;28;45424;-75
2022/01/09 02:20:21;;;;;;;;;5.50;5.50;;;;;5.22;75.97;99541.03;5011824;28;45385;-74
2022/01/09 02:22:46;;;;;;;;;0.50;0.00;;;;;5.22;75.07;99549.75;5047051;27;45613;-75
2022/01/09 02:25:13;;;;;;;;;8.25;5.50;;;;;5.24;75.27;99542.75;5116798;27;45357;-75
2022/01/09 02:27:38;;;;;;;;;2.50;1.00;;;;;5.22;75.09;99551.53;5086006;27;46257;-75
2022/01/09 02:30:06;;;;;;;;;0.00;0.00;;;;;5.20;74.90;99554.16;5012244;27;45528;-74
2022/01/09 02:32:31;;;;;;;;;4.00;4.00;;;;;5.18;73.51;99545.47;4994389;28;45521;-73
2022/01/09 02:34:56;;;;;;;;;1.00;0.00;;;;;5.22;73.66;99547.13;5012146;28;45590;-74
2022/01/09 02:37:22;;;;;;;;;7.00;5.50;;;;;5.22;72.79;99541.03;5012053;28;45638;-74
2022/01/09 02:39:49;;;;;;;;;1.00;0.00;;;;;5.20;72.87;99543.69;5012127;28;45491;-74
2022/01/09 02:42:20;;;;;;;;;1.00;0.00;;;;;5.22;72.15;99556.75;5011308;28;45566;-73
2022/01/09 02:44:45;;;;;;;;;0.00;0.00;;;;;5.17;72.09;99556.84;5010633;28;45529;-74
2022/01/09 02:47:11;;;;;;;;;0.00;0.00;;;;;5.21;72.99;99581.22;5011268;28;45712;-73
2022/01/09 02:49:36;;;;;;;;;0.00;0.00;;;;;5.13;74.15;99563.88;4993980;28;45446;-73
2022/01/09 02:52:09;;;;;;;;;0.00;0.00;;;;;5.16;75.03;99579.56;5012828;28;45497;-74
2022/01/09 02:57:18;;;;;;;;;3.00;0.00;;;;;5.18;75.37;99578.66;5011182;28;45481;-75
2022/01/09 02:59:44;;;;;;;;;2.50;2.50;;;;;5.10;75.39;99573.50;5011881;28;45460;-74
2022/01/09 03:02:09;;;;;;;;;0.00;0.00;;;;;5.08;74.83;99580.53;4997989;28;45567;-76
2022/01/09 03:04:34;;;;;;;;;3.00;3.00;;;;;5.02;74.58;99583.25;5011070;28;45317;-74
2022/01/09 03:07:00;;;;;;;;;1.00;1.00;;;;;5.01;75.14;99595.47;5011256;28;45434;-74
2022/01/09 03:09:25;;;;;;;;;3.00;3.00;;;;;5.02;75.07;99597.19;5011745;28;45425;-74
2022/01/09 03:11:50;;;;;;;;;4.00;4.00;;;;;5.02;75.60;99599.81;5011106;28;45389;-74
2022/01/09 03:14:16;;;;;;;;;0.50;0.50;;;;;5.05;75.12;99599.78;5027595;28;45506;-75
2022/01/09 03:16:41;;;;;;;;;1.00;1.00;;;;;5.04;74.96;99595.44;5011051;28;46105;-74
2022/01/09 03:19:10;;;;;;;;;1.00;1.00;;;;;5.03;75.29;99604.16;5011789;27;45504;-75
2022/01/09 03:21:35;;;;;;;;;3.00;2.00;;;;;5.01;74.62;99605.97;5011290;27;45417;-73
2022/01/09 03:24:01;;;;;;;;;0.00;0.00;;;;;5.05;74.59;99606.78;5051722;27;45510;-74
2022/01/09 03:26:27;;;;;;;;;4.00;1.00;;;;;4.98;74.58;99606.84;5009753;27;46369;-75
2022/01/09 03:28:52;;;;;;;;;0.00;0.00;;;;;5.00;74.68;99605.97;5011193;28;45255;-74
2022/01/09 03:31:17;;;;;;;;;0.00;0.00;;;;;5.02;74.96;99612.91;5010187;28;46921;-75
2022/01/09 03:33:43;;;;;;;;;3.50;3.50;;;;;5.02;74.76;99618.16;4993203;28;45402;-76
2022/01/09 03:36:08;;;;;;;;;4.50;1.00;;;;;5.02;75.00;99618.16;4993068;28;47873;-76
2022/01/09 03:38:33;;;;;;;;;0.00;0.00;;;;;5.04;75.34;99621.63;5011716;28;45437;-76
2022/01/09 03:40:59;;;;;;;;;6.75;3.75;;;;;5.01;75.46;99641.75;5010605;28;45532;-74
2022/01/09 03:43:24;;;;;;;;;2.50;0.00;;;;;5.05;76.09;99633.81;5011833;28;45477;-75
2022/01/09 03:45:50;;;;;;;;;3.50;3.50;;;;;5.07;76.16;99655.66;5010279;28;45506;-73
2022/01/09 03:48:15;;;;;;;;;0.00;0.00;;;;;5.08;76.76;99665.22;5020968;28;45498;-75
2022/01/09 03:50:42;;;;;;;;;0.00;0.00;;;;;5.05;77.24;99660.03;5031338;28;45502;-75
2022/01/09 03:53:11;;;;;;;;;3.50;0.50;;;;;5.04;77.42;99658.31;5030748;28;45428;-75
2022/01/09 03:55:37;;;;;;;;;0.50;0.50;;;;;5.08;78.30;99659.97;5016998;28;45931;-75
2022/01/09 03:58:02;;;;;;;;;0.75;0.75;;;;;5.05;77.85;99654.78;5011112;28;45283;-75
2022/01/09 04:00:27;;;;;;;;;0.00;0.00;;;;;5.08;77.65;99661.75;5011813;28;45480;-75
2022/01/09 04:02:54;;;;;;;;;4.50;4.50;;;;;5.09;77.60;99660.88;5010455;28;45637;-74
2022/01/09 04:05:19;;;;;;;;;1.00;1.00;;;;;5.06;77.51;99660.91;5011508;28;46184;-75
2022/01/09 04:07:45;;;;;;;;;0.00;0.00;;;;;5.11;77.36;99656.47;5010076;28;45349;-75
2022/01/09 04:10:10;;;;;;;;;5.00;5.00;;;;;5.08;77.83;99659.13;5010643;28;45550;-74
2022/01/09 04:12:47;;;;;;;;;0.50;0.50;;;;;5.08;77.23;99644.25;5009016;28;45637;-74
2022/01/09 04:15:12;;;;;;;;;2.50;1.00;;;;;5.05;77.55;99636.44;5010475;28;46277;-75
2022/01/09 04:20:15;;;;;;;;;0.00;0.00;;;;;4.96;76.92;99644.41;5014600;28;45336;-73
2022/01/09 04:22:41;;;;;;;;;0.25;0.25;;;;;4.95;77.11;99653.16;5014313;27;45391;-75
2022/01/09 04:25:07;;;;;;;;;8.00;8.00;;;;;4.91;77.75;99646.22;5012505;28;46092;-75
2022/01/09 04:27:33;;;;;;;;;1.00;0.00;;;;;4.89;77.98;99654.09;5023454;28;45486;-74
2022/01/09 04:29:58;;;;;;;;;0.00;0.00;;;;;4.87;77.77;99660.22;5025724;28;45447;-75
2022/01/09 04:32:24;;;;;;;;;0.00;0.00;;;;;4.87;77.71;99665.47;5013299;27;45508;-73
2022/01/09 04:34:50;;;;;;;;;1.00;1.00;;;;;4.85;78.03;99662.88;5013742;27;46485;-73
2022/01/09 04:37:16;;;;;;;;;1.50;1.50;;;;;4.82;77.57;99668.16;5013460;28;45583;-75
2022/01/09 04:39:42;;;;;;;;;0.00;0.00;;;;;4.80;78.23;99660.31;5012952;28;45499;-75
2022/01/09 04:42:07;;;;;;;;;0.50;0.50;;;;;4.80;78.06;99646.34;5013524;27;45622;-74
2022/01/09 04:44:33;;;;;;;;;3.00;1.00;;;;;4.82;78.02;99659.44;5013523;27;45474;-74
2022/01/09 04:47:03;;;;;;;;;1.00;0.00;;;;;4.83;78.42;99666.38;5013476;27;45428;-75
2022/01/09 04:49:36;;;;;;;;;1.00;1.00;;;;;4.83;78.57;99663.75;5019247;28;45422;-75
2022/01/09 04:52:04;;;;;;;;;1.00;0.00;;;;;4.85;78.25;99682.97;5015190;28;45467;-74
2022/01/09 04:54:30;;;;;;;;;0.00;0.00;;;;;4.87;78.33;99675.94;5032843;28;45494;-74
2022/01/09 04:56:55;;;;;;;;;1.00;0.75;;;;;4.91;78.76;99675.03;5015310;28;45454;-74
2022/01/09 04:59:21;;;;;;;;;3.75;3.75;;;;;4.92;78.82;99675.03;5012465;28;45500;-74
2022/01/09 05:01:46;;;;;;;;;0.00;0.00;;;;;4.89;78.72;99671.53;5021580;28;45425;-75
2022/01/09 05:04:11;;;;;;;;;0.00;0.00;;;;;4.85;78.93;99677.72;5033233;28;46533;-74
2022/01/09 05:06:37;;;;;;;;;0.00;0.00;;;;;4.88;78.95;99682.94;5019057;28;45403;-74
2022/01/09 05:09:02;;;;;;;;;0.75;0.00;;;;;4.87;79.30;99679.41;5013449;28;45499;-74
2022/01/09 05:11:28;;;;;;;;;1.00;1.00;;;;;4.85;78.86;99677.72;5012929;28;45444;-74
2022/01/09 05:13:53;;;;;;;;;0.25;0.00;;;;;4.83;79.60;99684.72;5012368;27;46577;-74
2022/01/09 05:16:18;;;;;;;;;1.00;0.00;;;;;4.81;79.30;99676.88;5012092;28;45463;-74
2022/01/09 05:18:57;;;;;;;;;0.00;0.00;;;;;4.84;79.58;99678.59;5013517;28;45333;-74
2022/01/09 05:21:23;;;;;;;;;0.00;0.00;;;;;4.79;80.40;99673.41;5012793;28;45507;-73
2022/01/09 05:23:49;;;;;;;;;0.00;0.00;;;;;4.78;80.88;99671.66;5092034;27;46176;-74
2022/01/09 05:26:14;;;;;;;;;0.25;0.00;;;;;4.77;80.80;99660.34;5117767;27;45447;-73
2022/01/09 05:28:40;;;;;;;;;0.00;0.00;;;;;4.82;81.09;99667.28;5041254;27;45658;-73
2022/01/09 05:31:05;;;;;;;;;0.00;0.00;;;;;4.78;80.77;99662.09;5011374;28;45482;-75
2022/01/09 05:33:31;;;;;;;;;0.00;0.00;;;;;4.79;80.57;99660.31;5013167;28;45694;-74
2022/01/09 05:35:56;;;;;;;;;1.00;0.00;;;;;4.75;80.75;99656.00;5012697;28;45512;-74
2022/01/09 05:38:22;;;;;;;;;1.00;0.00;;;;;4.72;80.49;99659.53;5012768;28;45791;-73
2022/01/09 05:40:47;;;;;;;;;0.00;0.00;;;;;4.65;80.47;99650.00;5012636;28;45557;-74
2022/01/09 05:43:13;;;;;;;;;0.75;0.00;;;;;4.68;80.52;99654.34;5013384;28;45363;-73
2022/01/09 05:45:39;;;;;;;;;0.25;0.25;;;;;4.65;80.05;99650.00;5011714;28;45416;-74
2022/01/09 05:48:06;;;;;;;;;2.25;0.00;;;;;4.62;79.86;99650.03;5012661;28;45364;-73
2022/01/09 05:50:32;;;;;;;;;1.00;0.00;;;;;4.65;80.54;99659.59;5012533;28;45478;-74
2022/01/09 05:52:57;;;;;;;;;0.00;0.00;;;;;4.62;80.58;99650.88;5012321;28;45350;-75
2022/01/09 05:55:22;;;;;;;;;1.00;1.00;;;;;4.57;80.40;99651.81;5011797;27;45360;-75
2022/01/09 05:57:47;;;;;;;;;4.25;0.75;;;;;4.54;80.55;99646.59;5012929;28;45337;-74
2022/01/09 06:00:14;;;;;;;;;0.00;0.00;;;;;4.55;80.49;99656.22;4995414;28;45414;-75
2022/01/09 06:02:40;;;;;;;;;0.25;0.25;;;;;4.51;80.43;99667.59;5019108;28;46043;-75
2022/01/09 06:05:07;;;;;;;;;1.50;0.00;;;;;4.49;79.83;99664.13;5012604;28;45431;-73
2022/01/09 06:07:32;;;;;;;;;0.00;0.00;;;;;4.52;80.43;99670.19;4995101;28;45473;-74
2022/01/09 06:09:58;;;;;;;;;2.00;0.50;;;;;4.51;80.31;99678.94;5013327;28;45600;-73
2022/01/09 06:12:23;;;;;;;;;3.00;3.00;;;;;4.52;80.77;99675.41;4993689;28;47192;-74
2022/01/09 06:14:48;;;;;;;;;3.75;3.00;;;;;4.50;80.77;99682.44;5012331;28;45617;-73
2022/01/09 06:17:14;;;;;;;;;0.00;0.00;;;;;4.56;80.91;99700.69;5012329;28;45442;-75
2022/01/09 06:19:39;;;;;;;;;0.50;0.50;;;;;4.61;80.87;99700.66;5012585;28;45475;-74
2022/01/09 06:22:05;;;;;;;;;3.50;3.50;;;;;4.62;80.87;99691.91;5023904;27;46102;-75
2022/01/09 06:24:30;;;;;;;;;5.00;5.00;;;;;4.64;80.43;99700.63;5116979;27;45350;-75
2022/01/09 06:26:56;;;;;;;;;0.75;0.75;;;;;4.63;80.25;99704.09;5116168;27;45331;-75
2022/01/09 06:29:21;;;;;;;;;0.00;0.00;;;;;4.65;80.38;99707.59;5090115;27;45550;-74
2022/01/09 06:31:46;;;;;;;;;0.00;0.00;;;;;4.69;80.89;99714.53;5011648;28;46239;-75
2022/01/09 06:34:13;;;;;;;;;0.00;0.00;;;;;4.66;80.33;99711.06;5011735;27;45456;-76
2022/01/09 06:36:40;;;;;;;;;0.00;0.00;;;;;4.67;80.24;99699.72;5012822;28;45438;-75
2022/01/09 06:39:06;;;;;;;;;1.00;1.00;;;;;4.67;80.10;99705.81;5011549;28;45511;-76
2022/01/09 06:41:32;;;;;;;;;0.00;0.00;;;;;4.68;80.18;99710.19;5010727;28;46027;-74
2022/01/09 06:43:58;;;;;;;;;0.50;0.50;;;;;4.67;80.68;99712.81;5012696;28;45432;-74
2022/01/09 06:46:24;;;;;;;;;0.50;0.50;;;;;4.67;80.46;99721.53;5011324;28;45558;-75
2022/01/09 06:48:49;;;;;;;;;3.00;0.00;;;;;4.65;80.45;99718.06;5012575;27;45527;-75
2022/01/09 06:51:16;;;;;;;;;3.00;0.00;;;;;4.67;80.52;99718.91;5011888;27;46551;-74
2022/01/09 06:53:42;;;;;;;;;0.00;0.00;;;;;4.67;80.64;99718.06;5012696;28;45360;-74
2022/01/09 06:56:07;;;;;;;;;3.00;3.00;;;;;4.65;80.13;99707.59;5011139;28;45529;-76
2022/01/09 06:58:33;;;;;;;;;3.50;0.75;;;;;4.67;80.78;99697.97;5011751;28;45248;-74
2022/01/09 07:00:59;;;;;;;;;1.00;0.00;;;;;4.69;80.66;99692.72;5020117;28;45346;-75
2022/01/09 07:03:24;;;;;;;;;0.75;0.75;;;;;4.65;80.81;99694.50;5011068;28;45509;-73
2022/01/09 07:05:51;;;;;;;;;1.00;0.00;;;;;4.72;80.36;99705.78;5011605;28;45423;-75
2022/01/09 07:08:16;;;;;;;;;3.00;1.00;;;;;4.72;80.38;99711.91;5011865;28;45347;-74
2022/01/09 07:10:42;;;;;;;;;1.00;0.00;;;;;4.73;80.39;99707.53;5012343;28;46084;-73
2022/01/09 07:13:07;;;;;;;;;0.00;0.00;;;;;4.74;81.14;99710.13;5012414;28;45541;-75
2022/01/09 07:15:33;;;;;;;;;0.00;0.00;;;;;4.73;80.55;99705.75;4995166;28;45441;-75
2022/01/09 07:17:58;;;;;;;;;0.00;0.00;;;;;4.78;81.10;99714.44;5028503;28;45746;-75
2022/01/09 07:20:25;;;;;;;;;0.75;0.75;;;;;4.78;81.74;99717.06;5010803;28;46152;-75
2022/01/09 07:22:50;;;;;;;;;0.00;0.00;;;;;4.75;82.21;99714.47;5048691;27;45345;-75
2022/01/09 07:25:15;;;;;;;;;0.00;0.00;;;;;4.74;82.20;99720.59;5072124;27;45328;-75
2022/01/09 07:27:41;;;;;;;;;0.00;0.00;;;;;4.73;82.26;99716.22;5031842;28;45417;-76
2022/01/09 07:30:07;;;;;;;;;2.00;0.00;;;;;4.75;82.36;99719.72;5029081;28;46198;-75
2022/01/09 07:32:36;;;;;;;;;0.75;0.00;;;;;4.75;82.31;99716.22;4992616;28;45434;-73
2022/01/09 07:35:02;;;;;;;;;1.00;0.00;;;;;4.77;82.35;99725.78;5011486;28;45495;-74
2022/01/09 07:37:30;;;;;;;;;4.50;4.50;;;;;4.78;82.54;99729.28;5047209;27;45558;-74
2022/01/09 07:39:55;;;;;;;;;0.00;0.00;;;;;4.78;81.85;99718.78;5024818;28;45462;-74
2022/01/09 07:42:21;;;;;;;;;0.00;0.00;;;;;4.78;82.32;99719.69;4994387;28;45457;-75
2022/01/09 07:44:46;;;;;;;;;5.00;5.00;;;;;4.77;81.80;99707.47;5012226;28;45298;-75
2022/01/09 07:47:11;;;;;;;;;1.00;0.00;;;;;4.79;82.58;99721.41;5011893;28;45456;-74
2022/01/09 07:49:37;;;;;;;;;3.75;1.00;;;;;4.78;82.56;99709.22;4993909;28;45426;-75
2022/01/09 07:52:02;;;;;;;;;0.00;0.00;;;;;4.82;82.69;99730.13;5012181;28;45497;-75
2022/01/09 07:54:28;;;;;;;;;0.00;0.00;;;;;4.84;83.58;99742.31;5031378;27;45425;-76
2022/01/09 07:56:53;;;;;;;;;0.00;0.00;;;;;4.84;83.87;99734.44;5016055;28;45602;-75
2022/01/09 07:59:18;;;;;;;;;2.00;0.00;;;;;4.87;84.14;99739.66;5034241;27;45575;-75
2022/01/09 08:01:44;;;;;;;;;0.25;0.00;;;;;4.84;84.05;99723.13;5016662;28;45578;-78
2022/01/09 08:04:09;;;;;;;;;3.00;0.00;;;;;4.90;83.54;99751.84;5014036;28;45504;-75
2022/01/09 08:06:34;;;;;;;;;1.00;0.00;;;;;4.89;83.30;99745.75;5014830;28;45460;-76
2022/01/09 08:09:00;;;;;;;;;1.00;0.00;;;;;4.90;83.26;99738.75;5013090;28;46196;-75
2022/01/09 08:11:25;;;;;;;;;0.00;0.00;;;;;4.89;82.56;99718.69;5004737;28;45434;-76
2022/01/09 08:13:51;;;;;;;;;0.00;0.00;;;;;4.89;83.50;99716.97;5015091;28;45639;-75
2022/01/09 08:16:16;;;;;;;;;3.00;0.00;;;;;4.93;83.09;99716.03;5013933;28;45471;-75
2022/01/09 08:18:41;;;;;;;;;0.75;0.00;;;;;4.93;83.44;99707.31;5014420;28;45900;-75
2022/01/09 08:21:07;;;;;;;;;0.00;0.00;;;;;4.97;83.03;99722.13;5021559;28;45409;-75
2022/01/09 08:23:32;;;;;;;;;0.00;0.00;;;;;4.99;83.20;99720.34;5021635;27;45510;-75
2022/01/09 08:25:57;;;;;;;;;0.00;0.00;;;;;4.97;82.30;99720.34;5012964;28;45376;-75
2022/01/09 08:28:23;;;;;;;;;2.50;0.00;;;;;5.08;81.92;99735.94;5029243;27;45395;-75
2022/01/09 08:30:48;;;;;;;;;1.00;1.00;;;;;5.08;81.36;99728.09;5031513;28;45502;-76
2022/01/09 08:33:14;;;;;;;;;0.50;0.00;;;;;5.07;81.25;99726.38;4996121;28;45450;-76
2022/01/09 08:35:40;;;;;;;;;1.00;0.25;;;;;5.11;80.86;99721.97;5013935;27;45271;-75
2022/01/09 08:38:05;;;;;;;;;0.00;0.00;;;;;5.15;80.71;99729.75;5013071;28;45585;-75
2022/01/09 08:40:30;;;;;;;;;0.00;0.00;;;;;5.22;81.22;99727.06;5013476;28;45272;-76
2022/01/09 08:42:56;;;;;;;;;0.50;0.50;;;;;5.15;80.38;99714.03;5015162;27;45428;-76
2022/01/09 08:45:23;;;;;;;;;0.00;0.00;;;;;5.20;80.75;99721.00;5117752;27;45544;-76
2022/01/09 08:47:49;;;;;;;;;0.00;0.00;;;;;5.12;80.24;99706.22;5054456;27;46524;-79
2022/01/09 08:50:18;;;;;;;;;0.00;0.00;;;;;5.03;80.85;99702.84;5054082;27;45503;-75
2022/01/09 08:52:43;;;;;;;;;0.00;0.00;;;;;5.02;80.88;99715.06;5017713;27;45504;-76
2022/01/09 08:55:09;;;;;;;;;0.50;0.00;;;;;5.02;80.07;99714.19;5024615;27;45626;-74
2022/01/09 08:57:34;;;;;;;;;0.00;0.00;;;;;4.97;80.38;99722.97;5025453;28;46074;-75
2022/01/09 09:00:00;;;;;;;;;0.00;0.00;;;;;4.93;80.62;99704.69;5014428;28;45405;-75
2022/01/09 09:02:25;;;;;;;;;0.00;0.00;;;;;4.95;80.31;99706.41;5013114;28;45435;-75
2022/01/09 09:04:50;;;;;;;;;0.00;0.00;;;;;4.96;80.40;99707.28;5014848;28;45503;-76
2022/01/09 09:07:18;;;;;;;;;0.00;0.00;;;;;4.95;80.34;99706.41;5021739;28;47526;-75
2022/01/09 09:09:45;;;;;;;;;1.00;0.00;;;;;5.03;80.52;99708.94;5026779;28;45491;-77
2022/01/09 09:12:11;;;;;;;;;0.00;0.00;;;;;5.22;79.90;99720.06;5024456;28;45447;-75
2022/01/09 09:14:37;;;;;;;;;0.00;0.00;;;;;5.83;80.53;99728.91;5014401;28;45431;-74
2022/01/09 09:17:03;;;;;;;;;0.00;0.00;;;;;6.51;78.72;99738.44;5016432;28;46241;-75
2022/01/09 09:19:29;;;;;;;;;1.50;0.00;;;;;6.40;77.78;99740.34;5007818;28;45750;-76
2022/01/09 09:21:54;;;;;;;;;0.00;0.00;;;;;6.26;77.00;99745.81;5018254;28;45429;-75
2022/01/09 09:24:20;;;;;;;;;0.00;0.00;;;;;6.07;77.33;99733.88;5014165;27;45426;-76
2022/01/09 09:26:45;;;;;;;;;0.00;0.00;;;;;6.00;77.98;99746.22;5012745;28;45368;-75
2022/01/09 09:29:10;;;;;;;;;3.00;0.00;;;;;5.95;78.62;99747.97;5013340;28;45404;-75
2022/01/09 09:31:36;;;;;;;;;0.00;0.00;;;;;5.92;79.06;99753.28;5010661;28;45543;-75
2022/01/09 09:34:04;;;;;;;;;0.00;0.00;;;;;5.88;79.18;99755.09;5011465;28;45559;-76
2022/01/09 09:36:29;;;;;;;;;3.00;1.00;;;;;5.88;79.46;99766.44;5015158;28;46239;-76
2022/01/09 09:38:55;;;;;;;;;0.00;0.00;;;;;5.87;79.63;99751.56;5017642;28;45504;-76
2022/01/09 09:41:24;;;;;;;;;0.00;0.00;;;;;5.86;79.72;99743.72;5024518;28;45555;-75
2022/01/09 09:43:50;;;;;;;;;0.00;0.00;;;;;5.90;79.16;99752.44;5013162;28;45604;-76
2022/01/09 09:46:16;;;;;;;;;0.00;0.00;;;;;5.86;80.09;99744.63;5014269;28;45468;-75
2022/01/09 09:48:42;;;;;;;;;0.00;0.00;;;;;5.85;79.36;99740.25;5021036;28;45532;-78
2022/01/09 09:51:07;;;;;;;;;1.00;0.00;;;;;5.97;79.71;99748.88;5020762;28;45332;-77
2022/01/09 09:53:33;;;;;;;;;0.00;0.00;;;;;6.00;80.18;99760.19;5057062;27;45513;-78
2022/01/09 09:55:58;;;;;;;;;0.00;0.00;;;;;6.03;79.24;99768.00;5017064;27;46570;-78
2022/01/09 09:58:23;;;;;;;;;0.00;0.00;;;;;6.08;79.56;99769.72;5012131;28;45394;-78
2022/01/09 10:00:54;;;;;;;;;0.00;0.00;;;;;6.09;78.30;99772.31;5013507;28;45479;-78
2022/01/09 10:03:30;;;;;;;;;1.75;0.00;;;;;6.12;78.64;99780.16;5018093;28;45478;-78
2022/01/09 10:05:56;;;;;;;;;0.00;0.00;;;;;6.13;78.43;99781.00;5030756;27;45609;-79
2022/01/09 10:08:34;;;;;;;;;0.00;0.00;;;;;6.13;78.96;99770.50;5013668;28;45409;-78
2022/01/09 10:11:11;;;;;;;;;0.00;0.00;;;;;6.05;78.35;99770.63;5022613;28;45397;-79
2022/01/09 10:13:36;;;;;;;;;1.00;0.00;;;;;6.15;78.37;99785.34;5017707;28;45494;-77
2022/01/09 10:16:02;;;;;;;;;0.00;0.00;;;;;6.07;77.23;99763.56;5026857;28;46046;-79
2022/01/09 10:18:44;;;;;;;;;0.00;0.00;;;;;6.13;77.82;99771.34;5021534;28;45543;-77
2022/01/09 10:21:15;;;;;;;;;0.00;0.00;;;;;6.15;76.93;99759.09;4995554;28;45470;-77
2022/01/09 10:24:03;;;;;;;;;0.00;0.00;;;;;6.20;77.57;99774.78;5011175;27;45482;-76
2022/01/09 10:26:31;;;;;;;;;0.00;0.00;;;;;6.21;77.78;99774.75;5023718;28;45463;-77
2022/01/09 10:28:57;;;;;;;;;0.00;0.00;;;;;6.21;77.88;99763.41;5032259;27;45471;-77
2022/01/09 10:31:23;;;;;;;;;0.25;0.00;;;;;6.22;77.69;99778.25;5045954;27;45474;-76
2022/01/09 10:34:18;;;;;;;;;0.00;0.00;;;;;6.25;77.80;99787.84;5019341;27;45468;-78
2022/01/09 10:36:47;;;;;;;;;0.00;0.00;;;;;6.23;77.93;99790.47;5019599;27;45502;-76
2022/01/09 10:39:28;;;;;;;;;2.50;0.00;;;;;6.24;78.99;99794.84;5020507;28;45522;-76
2022/01/09 10:41:56;;;;;;;;;0.00;0.00;;;;;6.26;78.57;99789.56;5012453;28;45506;-77
2022/01/09 10:44:30;;;;;;;;;0.00;0.00;;;;;6.26;76.84;99787.81;5019071;28;45525;-77
2022/01/09 10:47:19;;;;;;;;;0.00;0.00;;;;;6.32;78.00;99787.72;5020671;28;46603;-79
2022/01/09 10:49:48;;;;;;;;;0.00;0.00;;;;;6.44;75.15;99776.16;4981556;27;45600;-80
2022/01/09 10:52:25;;;;;;;;;1.50;0.00;;;;;6.53;75.83;99788.28;5069264;27;45516;-78
2022/01/09 10:54:53;;;;;;;;;0.00;0.00;;;;;6.57;75.57;99782.06;4997976;27;45449;-81
2022/01/09 10:57:32;;;;;;;;;1.00;0.00;;;;;6.56;75.99;99793.50;4995572;27;45446;-79
2022/01/09 11:00:11;;;;;;;;;0.00;0.00;;;;;6.48;76.17;99801.47;5012340;27;45532;-80
2022/01/09 11:02:38;;;;;;;;;0.00;0.00;;;;;6.38;77.11;99789.38;5036786;27;45355;-79
2022/01/09 11:05:04;;;;;;;;;0.50;0.50;;;;;6.26;76.39;99789.56;5047193;27;45615;-78
2022/01/09 11:07:31;;;;;;;;;0.00;0.00;;;;;6.21;77.50;99798.38;5016048;27;46309;-80
2022/01/09 11:09:58;;;;;;;;;3.00;3.00;;;;;6.10;77.79;99795.03;5006253;27;45712;-79
2022/01/09 11:12:31;;;;;;;;;0.00;0.00;;;;;6.07;77.39;99800.31;5060243;27;45417;-79
2022/01/09 11:15:00;;;;;;;;;0.00;0.00;;;;;5.92;78.80;99803.13;5038204;27;45812;-79
2022/01/09 11:17:25;;;;;;;;;0.00;0.00;;;;;5.94;78.96;99798.72;5078120;27;45518;-79
2022/01/09 11:19:51;;;;;;;;;0.00;0.00;;;;;5.95;78.74;99810.94;5025344;27;45442;-78
2022/01/09 11:22:16;;;;;;;;;2.00;0.00;;;;;5.94;79.14;99798.72;4990069;27;45450;-79
2022/01/09 11:24:48;;;;;;;;;3.75;0.50;;;;;5.91;78.68;99804.03;5017242;27;45447;-80
2022/01/09 11:27:16;;;;;;;;;0.00;0.00;;;;;5.86;78.33;99810.19;5014796;27;47087;-79
2022/01/09 11:30:00;;;;;;;;;0.00;0.00;;;;;5.89;78.55;99796.19;5020793;28;45551;-79
2022/01/09 11:32:31;;;;;;;;;2.25;2.25;;;;;5.86;78.67;99817.16;5006109;28;45413;-79
2022/01/09 11:34:57;;;;;;;;;1.00;0.00;;;;;5.85;78.55;99813.69;5015173;28;45535;-78
2022/01/09 11:37:25;;;;;;;;;0.75;0.25;;;;;5.90;79.22;99818.00;5016680;28;47107;-79
2022/01/09 11:39:51;;;;;;;;;0.00;0.00;;;;;5.90;79.01;99818.00;5015997;28;45431;-79
2022/01/09 11:42:17;;;;;;;;;1.00;1.00;;;;;5.90;79.63;99812.78;5018384;28;45315;-79
2022/01/09 11:45:02;;;;;;;;;0.75;0.75;;;;;5.85;79.31;99787.47;5020046;28;45602;-79